Time;durP1;ratioP1;P1;durP2;ratioP2;P2;SDS_P1;SDS_P2;PMS_P1;PMS_P2;Temp;Humidity;BMP_temperature;BMP_pressure;BME280_temperature;BME280_humidity;BME280_pressure;Samples;Min_cycle;Max_cycle;Signal;HPM_P1;HPM_P2
2022/09/28 00:01:16;;;;;;;2.73;2.50;;;;;;;6.57;100.00;94752.22;6153162;23;20368;-77
2022/09/28 00:03:44;;;;;;;7.20;3.33;;;;;;;6.38;100.00;94731.88;6120065;23;20423;-78
2022/09/28 00:06:13;;;;;;;3.47;2.83;;;;;;;6.34;100.00;94721.28;6133345;23;20380;-78
2022/09/28 00:08:39;;;;;;;4.07;3.10;;;;;;;6.17;100.00;94711.13;6133242;23;20981;-78
2022/09/28 00:11:11;;;;;;;4.47;3.50;;;;;;;6.47;100.00;94740.34;6132078;23;20404;-78
2022/09/28 00:13:37;;;;;;;5.97;3.37;;;;;;;6.27;100.00;94708.00;6131993;23;20439;-78
2022/09/28 00:16:11;;;;;;;2.70;2.50;;;;;;;6.49;100.00;94741.53;6132764;23;21009;-78
2022/09/28 00:18:37;;;;;;;3.50;3.20;;;;;;;6.45;100.00;94730.19;6159672;23;20423;-77
2022/09/28 00:21:11;;;;;;;3.57;2.80;;;;;;;6.36;100.00;94719.09;6108183;23;20882;-78
2022/09/28 00:24:11;;;;;;;4.80;2.93;;;;;;;6.42;100.00;94738.00;6132663;23;20412;-77
2022/09/28 00:26:27;;;;;;;3.13;2.57;;;;;;;6.26;100.00;94731.94;6157313;23;20463;-78
2022/09/28 00:28:59;;;;;;;4.17;2.50;;;;;;;6.24;100.00;94708.66;6132352;23;20490;-78
2022/09/28 00:31:28;;;;;;;5.00;3.20;;;;;;;6.25;100.00;94712.81;6132659;23;20487;-78
2022/09/28 00:33:56;;;;;;;4.33;3.30;;;;;;;6.27;100.00;94710.59;6132603;23;20427;-78
2022/09/28 00:36:25;;;;;;;4.70;3.30;;;;;;;6.29;100.00;94710.28;6132290;23;20486;-78
2022/09/28 00:38:56;;;;;;;2.60;2.40;;;;;;;5.93;100.00;94655.09;6132190;23;20437;-78
2022/09/28 00:41:25;;;;;;;3.50;3.20;;;;;;;6.30;100.00;94701.31;6132813;23;20455;-78
2022/09/28 00:43:53;;;;;;;4.77;3.53;;;;;;;6.29;100.00;94684.81;6108329;23;20495;-77
2022/09/28 00:46:34;;;;;;;3.30;2.87;;;;;;;6.18;100.00;94675.91;6132421;23;20380;-78
2022/09/28 00:49:09;;;;;;;2.50;2.30;;;;;;;6.28;100.00;94693.00;6132399;23;20411;-78
2022/09/28 00:51:40;;;;;;;3.70;3.00;;;;;;;6.25;100.00;94676.06;6132290;23;20388;-78
2022/09/28 00:54:08;;;;;;;3.50;3.20;;;;;;;6.15;100.00;94681.84;6158955;23;20395;-78
2022/09/28 00:56:39;;;;;;;3.83;2.60;;;;;;;6.09;100.00;94667.44;6107951;23;20434;-78
2022/09/28 00:59:08;;;;;;;5.87;3.17;;;;;;;5.91;100.00;94632.94;6131144;23;20406;-77
2022/09/28 01:01:35;;;;;;;3.63;3.10;;;;;;;5.86;100.00;94626.03;6108323;23;20406;-78
2022/09/28 01:04:03;;;;;;;6.23;3.30;;;;;;;5.78;100.00;94620.97;6132613;23;20470;-78
2022/09/28 01:06:34;;;;;;;2.97;2.77;;;;;;;6.00;100.00;94658.97;6107955;23;20400;-78
2022/09/28 01:09:04;;;;;;;4.53;3.17;;;;;;;6.03;100.00;94645.97;6132989;23;20916;-78
2022/09/28 01:11:34;;;;;;;4.20;2.90;;;;;;;5.35;100.00;94541.28;6132591;23;21028;-77
2022/09/28 01:14:02;;;;;;;7.07;6.17;;;;;;;5.69;100.00;94597.50;6132309;23;20724;-78
2022/09/28 01:16:44;;;;;;;9.63;6.30;;;;;;;5.93;100.00;94649.84;6132123;23;20434;-78
2022/09/28 01:19:58;;;;;;;10.73;5.80;;;;;;;5.70;100.00;94608.75;6132119;23;20474;-78
2022/09/28 01:22:33;;;;;;;4.47;3.53;;;;;;;5.93;100.00;94618.38;6132103;23;20434;-78
2022/09/28 01:25:21;;;;;;;4.33;2.67;;;;;;;5.79;100.00;94594.41;6131802;23;20411;-78
2022/09/28 01:27:58;;;;;;;2.97;2.77;;;;;;;5.89;100.00;94608.88;6158061;23;20408;-78
2022/09/28 01:30:25;;;;;;;4.07;2.37;;;;;;;5.63;100.00;94577.91;6107200;23;20391;-78
2022/09/28 01:33:02;;;;;;;6.90;3.43;;;;;;;5.86;100.00;94622.63;6131793;23;20391;-78
2022/09/28 01:35:32;;;;;;;3.63;2.37;;;;;;;5.84;100.00;94617.72;6131581;23;20430;-78
2022/09/28 01:38:05;;;;;;;2.90;2.13;;;;;;;5.77;100.00;94599.22;6131931;23;20483;-78
2022/09/28 01:40:34;;;;;;;2.73;2.53;;;;;;;5.57;100.00;94580.00;6107398;23;20916;-78
2022/09/28 01:43:17;;;;;;;2.73;2.53;;;;;;;5.64;100.00;94595.91;6157440;23;20391;-78
2022/09/28 01:45:47;;;;;;;2.20;2.00;;;;;;;5.54;100.00;94582.53;6107332;23;20395;-78
2022/09/28 01:48:22;;;;;;;2.70;2.50;;;;;;;5.33;100.00;94541.59;6158081;23;21052;-78
2022/09/28 01:50:54;;;;;;;2.20;2.00;;;;;;;5.70;100.00;94572.81;6131173;23;20411;-78
2022/09/28 01:53:27;;;;;;;3.47;2.10;;;;;;;5.67;100.00;94585.84;6131743;23;20403;-78
2022/09/28 01:56:06;;;;;;;3.00;2.30;;;;;;;5.60;100.00;94579.31;6130975;23;20442;-78
2022/09/28 01:59:03;;;;;;;4.23;2.60;;;;;;;5.67;100.00;94583.22;6131311;23;20438;-78
2022/09/28 02:01:47;;;;;;;3.50;2.17;;;;;;;5.70;100.00;94570.19;6074105;23;20404;-78
2022/09/28 02:04:20;;;;;;;2.50;2.30;;;;;;;5.72;100.00;94565.38;6131054;23;20396;-78
2022/09/28 02:07:10;;;;;;;2.23;2.00;;;;;;;5.74;100.00;94578.91;6131652;23;20427;-78
2022/09/28 02:09:46;;;;;;;2.17;1.97;;;;;;;5.79;100.00;94578.66;6131095;23;20412;-78
2022/09/28 02:12:21;;;;;;;2.10;2.00;;;;;;;5.49;100.00;94533.00;6131730;23;20407;-78
2022/09/28 02:14:54;;;;;;;3.67;2.37;;;;;;;5.35;100.00;94509.84;6130953;23;20396;-78
2022/09/28 02:17:21;;;;;;;2.70;2.50;;;;;;;5.52;100.00;94533.06;6131157;23;20448;-78
2022/09/28 02:19:48;;;;;;;4.50;2.17;;;;;;;5.52;100.00;94519.97;6163285;23;20459;-78
2022/09/28 02:22:50;;;;;;;2.80;2.60;;;;;;;5.82;100.00;94564.13;6139054;23;20412;-78
2022/09/28 02:25:26;;;;;;;8.17;2.77;;;;;;;5.83;100.00;94555.91;6116900;23;20403;-76
2022/09/28 02:28:01;;;;;;;2.50;2.30;;;;;;;5.89;100.00;94554.56;6128006;23;20408;-76
2022/09/28 02:30:34;;;;;;;2.40;2.20;;;;;;;5.72;100.00;94535.78;6151788;23;20391;-77
2022/09/28 02:33:11;;;;;;;5.00;2.60;;;;;;;5.61;100.00;94517.94;6126786;23;20376;-78
2022/09/28 02:35:39;;;;;;;2.43;2.23;;;;;;;5.63;100.00;94526.22;6145340;23;20427;-78
2022/09/28 02:38:06;;;;;;;5.93;2.80;;;;;;;5.61;100.00;94520.56;6129500;23;20744;-78
2022/09/28 02:40:36;;;;;;;3.57;2.67;;;;;;;5.68;100.00;94519.22;6105595;23;20449;-78
2022/09/28 02:43:23;;;;;;;4.63;2.80;;;;;;;5.77;100.00;94536.28;6129635;23;20738;-78
2022/09/28 02:46:35;;;;;;;2.63;2.43;;;;;;;5.86;100.00;94529.00;6129128;23;20483;-77
2022/09/28 02:49:31;;;;;;;2.70;2.50;;;;;;;5.60;100.00;94477.09;6041179;23;20431;-78
2022/09/28 02:51:58;;;;;;;3.60;2.50;;;;;;;5.90;100.00;94514.16;6129599;23;20404;-77
2022/09/28 02:55:12;;;;;;;2.53;2.30;;;;;;;5.84;100.00;94520.72;6129245;23;20500;-77
2022/09/28 02:58:16;;;;;;;5.10;2.03;;;;;;;5.89;100.00;94517.09;6128464;23;20479;-77
2022/09/28 03:01:07;;;;;;;3.53;1.97;;;;;;;5.77;100.00;94504.84;6128598;23;20742;-77
2022/09/28 03:03:47;;;;;;;3.40;1.93;;;;;;;5.57;100.00;94459.44;6074842;23;20434;-77
2022/09/28 03:06:22;;;;;;;3.00;1.90;;;;;;;5.49;100.00;94452.53;6128095;23;20443;-77
2022/09/28 03:09:08;;;;;;;2.33;2.13;;;;;;;5.76;100.00;94492.06;6128685;23;20420;-77
2022/09/28 03:11:42;;;;;;;2.00;1.60;;;;;;;5.77;100.00;94494.34;6104276;23;20797;-77
2022/09/28 03:14:10;;;;;;;3.80;1.90;;;;;;;5.69;100.00;94487.41;6103974;23;20495;-77
2022/09/28 03:16:51;;;;;;;2.10;1.87;;;;;;;5.69;100.00;94484.03;6127889;23;20424;-77
2022/09/28 03:19:23;;;;;;;2.40;2.20;;;;;;;5.60;100.00;94460.59;6128129;23;20419;-77
2022/09/28 03:21:50;;;;;;;3.13;2.30;;;;;;;5.78;100.00;94487.25;6103798;23;20439;-77
2022/09/28 03:24:17;;;;;;;1.90;1.70;;;;;;;5.76;100.00;94477.09;6128530;23;20510;-77
2022/09/28 03:26:43;;;;;;;4.87;1.70;;;;;;;5.53;100.00;94463.06;6128563;23;20479;-77
2022/09/28 03:29:11;;;;;;;3.60;2.30;;;;;;;5.69;100.00;94481.41;6128584;23;20753;-77
2022/09/28 03:31:38;;;;;;;2.43;2.10;;;;;;;5.49;100.00;94449.13;6128795;23;20439;-77
2022/09/28 03:34:05;;;;;;;2.53;2.07;;;;;;;5.61;100.00;94470.78;6128747;23;20404;-77
2022/09/28 03:36:31;;;;;;;7.00;2.10;;;;;;;5.69;100.00;94469.06;6104637;23;20552;-76
2022/09/28 03:38:58;;;;;;;2.40;1.60;;;;;;;5.48;100.00;94426.66;6128981;23;20410;-77
2022/09/28 03:41:29;;;;;;;2.10;2.00;;;;;;;5.73;100.00;94462.03;6105071;23;20407;-77
2022/09/28 03:43:55;;;;;;;2.17;1.90;;;;;;;5.46;100.00;94429.59;6129210;23;20498;-77
2022/09/28 03:46:24;;;;;;;1.80;1.70;;;;;;;5.32;100.00;94419.53;6129726;23;20487;-78
2022/09/28 03:48:56;;;;;;;2.37;1.70;;;;;;;5.29;100.00;94422.09;6105817;23;20898;-77
2022/09/28 03:51:23;;;;;;;4.17;1.90;;;;;;;5.33;100.00;94434.16;6104711;23;20404;-77
2022/09/28 03:53:49;;;;;;;3.00;2.40;;;;;;;5.51;100.00;94433.84;6154164;23;20412;-77
2022/09/28 03:56:16;;;;;;;2.97;1.93;;;;;;;5.01;100.00;94356.72;6127797;23;20424;-77
2022/09/28 03:58:43;;;;;;;2.10;1.90;;;;;;;5.35;100.00;94410.28;6154156;23;20491;-77
2022/09/28 04:01:12;;;;;;;2.57;1.67;;;;;;;5.47;100.00;94425.09;6103059;23;20944;-77
2022/09/28 04:03:45;;;;;;;4.00;2.50;;;;;;;5.20;100.00;94390.81;6103754;23;20400;-77
2022/09/28 04:06:12;;;;;;;5.07;2.57;;;;;;;5.41;100.00;94434.34;6127032;23;20926;-77
2022/09/28 04:08:39;;;;;;;2.57;2.37;;;;;;;5.53;100.00;94436.88;6127272;23;20447;-77
2022/09/28 04:11:07;;;;;;;4.57;2.73;;;;;;;5.28;100.00;94418.72;6126852;23;20404;-76
2022/09/28 04:13:33;;;;;;;4.93;2.60;;;;;;;5.48;100.00;94424.78;6103721;23;20411;-76
2022/09/28 04:16:05;;;;;;;2.17;1.97;;;;;;;5.05;100.00;94349.69;6105545;23;20774;-76
2022/09/28 04:18:34;;;;;;;2.57;2.37;;;;;;;5.16;100.00;94371.66;6128729;23;20866;-76
2022/09/28 04:21:11;;;;;;;1.80;1.70;;;;;;;5.35;100.00;94394.56;6106382;23;20450;-76
2022/09/28 04:23:42;;;;;;;2.50;2.30;;;;;;;5.39;100.00;94399.88;6128485;23;20499;-76
2022/09/28 04:26:33;;;;;;;2.03;1.77;;;;;;;5.30;100.00;94395.56;6104298;23;20455;-76
2022/09/28 04:29:15;;;;;;;1.83;1.50;;;;;;;5.23;100.00;94374.44;6117892;23;20925;-76
2022/09/28 04:31:53;;;;;;;1.97;1.87;;;;;;;5.32;100.00;94379.50;6128606;23;20482;-76
2022/09/28 04:34:32;;;;;;;2.57;1.90;;;;;;;5.39;100.00;94371.03;6128675;23;20425;-76
2022/09/28 04:37:04;;;;;;;2.50;2.27;;;;;;;5.24;100.00;94362.09;6128484;23;20993;-76
2022/09/28 04:39:30;;;;;;;3.20;2.20;;;;;;;5.34;100.00;94356.31;6128794;23;20479;-76
2022/09/28 04:41:57;;;;;;;4.97;1.90;;;;;;;5.24;100.00;94318.34;6104438;23;20404;-76
2022/09/28 04:44:26;;;;;;;2.63;2.00;;;;;;;5.52;100.00;94357.50;6128507;23;20894;-76
2022/09/28 04:46:57;;;;;;;7.03;2.60;;;;;;;5.30;100.00;94324.06;6118425;23;20428;-75
2022/09/28 04:49:30;;;;;;;2.67;1.70;;;;;;;5.43;100.00;94364.00;6177198;23;20353;-76
2022/09/28 04:52:08;;;;;;;4.50;2.87;;;;;;;5.20;100.00;94308.84;6151718;23;20727;-76
2022/09/28 04:54:34;;;;;;;3.40;2.40;;;;;;;4.98;100.00;94305.78;6126730;23;20431;-75
2022/09/28 04:57:02;;;;;;;2.50;2.30;;;;;;;5.12;100.00;94334.16;6150877;23;20439;-75
2022/09/28 04:59:29;;;;;;;2.40;2.20;;;;;;;5.15;100.00;94309.91;6125584;23;20408;-76
2022/09/28 05:01:56;;;;;;;3.17;2.03;;;;;;;5.07;100.00;94304.81;6150403;23;20400;-76
2022/09/28 05:04:22;;;;;;;4.50;2.30;;;;;;;5.41;100.00;94338.16;6175838;23;20396;-76
2022/09/28 05:07:26;;;;;;;2.27;2.10;;;;;;;5.48;100.00;94321.84;6035332;23;20423;-76
2022/09/28 05:09:54;;;;;;;2.13;1.80;;;;;;;5.51;100.00;94308.03;6113502;23;20410;-76
2022/09/28 05:12:21;;;;;;;2.50;1.90;;;;;;;5.50;100.00;94309.16;6128103;23;20879;-76
2022/09/28 05:14:48;;;;;;;2.17;2.00;;;;;;;5.32;100.00;94293.03;6128070;23;20470;-76
2022/09/28 05:17:14;;;;;;;2.17;2.03;;;;;;;5.41;100.00;94306.72;6127746;23;20439;-76
2022/09/28 05:19:57;;;;;;;2.57;2.37;;;;;;;5.29;100.00;94291.88;6128115;23;20406;-76
2022/09/28 05:22:24;;;;;;;2.60;2.40;;;;;;;5.52;100.00;94322.66;6103804;23;20399;-75
2022/09/28 05:24:53;;;;;;;3.70;3.40;;;;;;;5.41;100.00;94325.06;6127226;23;20901;-75
2022/09/28 05:27:22;;;;;;;2.37;2.17;;;;;;;5.54;100.00;94309.97;6127895;23;20427;-75
2022/09/28 05:29:58;;;;;;;2.33;2.20;;;;;;;5.33;100.00;94290.06;6128111;23;20388;-75
2022/09/28 05:32:43;;;;;;;2.30;2.10;;;;;;;5.33;100.00;94279.59;6132311;23;20704;-75
2022/09/28 05:35:17;;;;;;;2.53;2.33;;;;;;;5.29;100.00;94288.47;6128161;23;20395;-76
2022/09/28 05:37:46;;;;;;;3.63;2.70;;;;;;;5.49;100.00;94308.38;6103750;23;20443;-75
2022/09/28 05:40:13;;;;;;;3.30;2.40;;;;;;;5.43;100.00;94280.91;6127776;23;20400;-75
2022/09/28 05:42:39;;;;;;;2.80;2.50;;;;;;;5.50;100.00;94282.94;6128046;23;20416;-75
2022/09/28 05:45:07;;;;;;;3.37;3.07;;;;;;;4.92;100.00;94220.72;6127982;23;20443;-76
2022/09/28 05:47:41;;;;;;;2.70;2.50;;;;;;;5.41;100.00;94277.88;6127614;23;20427;-75
2022/09/28 05:50:10;;;;;;;2.60;2.40;;;;;;;5.25;100.00;94230.78;6127963;23;20408;-75
2022/09/28 05:52:38;;;;;;;3.93;2.73;;;;;;;5.67;100.00;94295.63;6103617;23;20502;-75
2022/09/28 05:55:06;;;;;;;3.07;2.80;;;;;;;5.56;100.00;94284.94;6127978;23;20411;-76
2022/09/28 05:57:33;;;;;;;3.10;2.10;;;;;;;5.42;100.00;94247.19;6103582;23;20454;-76
2022/09/28 06:00:03;;;;;;;3.30;3.00;;;;;;;5.87;100.00;94278.78;6127784;23;20434;-76
2022/09/28 06:02:38;;;;;;;2.47;2.30;;;;;;;5.59;100.00;94252.03;6154145;23;20364;-76
2022/09/28 06:05:06;;;;;;;2.20;2.10;;;;;;;5.81;100.00;94276.81;6127813;23;20418;-76
2022/09/28 06:07:33;;;;;;;1.90;1.70;;;;;;;5.74;100.00;94245.19;6153718;23;20940;-76
2022/09/28 06:10:00;;;;;;;2.30;1.80;;;;;;;5.78;100.00;94259.16;6103382;23;20482;-76
2022/09/28 06:12:39;;;;;;;3.67;1.90;;;;;;;5.78;100.00;94253.91;6127751;23;20467;-76
2022/09/28 06:15:12;;;;;;;2.07;1.97;;;;;;;5.63;100.00;94229.28;6104378;23;20708;-76
2022/09/28 06:17:39;;;;;;;1.97;1.83;;;;;;;5.61;100.00;94244.59;6127388;23;20444;-76
2022/09/28 06:20:26;;;;;;;2.10;1.90;;;;;;;5.35;100.00;94213.78;6132226;23;20877;-76
2022/09/28 06:23:06;;;;;;;2.00;1.87;;;;;;;5.52;100.00;94226.47;6132157;23;20364;-78
2022/09/28 06:25:33;;;;;;;2.40;1.87;;;;;;;5.44;100.00;94208.31;6131709;23;20475;-78
2022/09/28 06:28:08;;;;;;;1.87;1.77;;;;;;;5.49;100.00;94224.53;6131835;23;20763;-78
2022/09/28 06:30:37;;;;;;;1.70;1.60;;;;;;;5.86;100.00;94279.91;6108379;23;20415;-78
2022/09/28 06:33:09;;;;;;;2.70;1.90;;;;;;;5.37;100.00;94202.94;6109458;23;20407;-77
2022/09/28 06:35:36;;;;;;;1.77;1.67;;;;;;;5.89;100.00;94257.50;6134945;23;20412;-78
2022/09/28 06:38:03;;;;;;;1.67;1.57;;;;;;;5.88;100.00;94267.22;6109174;23;20443;-78
2022/09/28 06:40:30;;;;;;;1.70;1.60;;;;;;;5.81;100.00;94259.22;6134594;23;20537;-77
2022/09/28 06:42:58;;;;;;;2.30;1.57;;;;;;;5.72;100.00;94236.91;6110252;23;20411;-78
2022/09/28 06:45:52;;;;;;;1.80;1.70;;;;;;;5.77;100.00;94234.78;6139952;23;20403;-77
2022/09/28 06:48:27;;;;;;;2.80;2.53;;;;;;;5.76;100.00;94235.91;6162493;23;20475;-77
2022/09/28 06:50:55;;;;;;;2.37;2.13;;;;;;;5.68;100.00;94213.28;6133429;23;20817;-78
2022/09/28 06:53:45;;;;;;;1.60;1.50;;;;;;;5.76;100.00;94219.41;6145621;23;20396;-77
2022/09/28 06:56:31;;;;;;;1.50;1.40;;;;;;;6.15;100.00;94268.09;6111401;23;20433;-77
2022/09/28 06:58:58;;;;;;;3.77;1.30;;;;;;;6.01;100.00;94252.13;6110266;23;20875;-77
2022/09/28 07:01:25;;;;;;;1.57;1.30;;;;;;;5.96;100.00;94234.03;6138932;23;20396;-77
2022/09/28 07:04:06;;;;;;;1.70;1.60;;;;;;;6.01;100.00;94236.38;6146384;23;20442;-77
2022/09/28 07:06:53;;;;;;;4.00;1.77;;;;;;;6.16;100.00;94253.13;6118967;23;20471;-77
2022/09/28 07:09:55;;;;;;;1.40;1.30;;;;;;;6.27;100.00;94253.28;6109221;23;20393;-77
2022/09/28 07:12:49;;;;;;;1.87;1.77;;;;;;;6.45;100.00;94278.72;6125696;23;20400;-77
2022/09/28 07:15:29;;;;;;;4.03;1.70;;;;;;;6.37;100.00;94242.97;6147746;23;20434;-78
2022/09/28 07:18:00;;;;;;;1.83;1.73;;;;;;;6.63;100.00;94286.13;6148285;23;20444;-77
2022/09/28 07:20:32;;;;;;;2.00;1.40;;;;;;;6.70;100.00;94288.88;6148513;23;20388;-78
2022/09/28 07:23:14;;;;;;;1.00;1.00;;;;;;;6.78;100.00;94287.88;6149037;23;20434;-77
2022/09/28 07:26:04;;;;;;;1.50;1.40;;;;;;;6.43;100.00;94251.31;6175927;23;20376;-77
2022/09/28 07:28:54;;;;;;;2.03;1.43;;;;;;;6.67;100.00;94268.56;6152779;23;20428;-77
2022/09/28 07:31:39;;;;;;;2.73;1.07;;;;;;;6.62;100.00;94267.00;6141398;23;20407;-77
2022/09/28 07:34:24;;;;;;;1.77;1.30;;;;;;;6.57;100.00;94251.56;6164075;23;20379;-77
2022/09/28 07:36:59;;;;;;;0.90;0.90;;;;;;;6.73;100.00;94275.06;6141275;23;20477;-77
2022/09/28 07:39:26;;;;;;;2.43;1.47;;;;;;;6.95;100.00;94290.03;6116208;23;20400;-77
2022/09/28 07:41:53;;;;;;;16.77;6.57;;;;;;;7.05;100.00;94293.91;6139962;23;20407;-77
2022/09/28 07:44:28;;;;;;;10.67;5.80;;;;;;;6.95;100.00;94282.16;6140256;23;20418;-77
2022/09/28 07:46:56;;;;;;;7.07;4.27;;;;;;;7.01;100.00;94312.25;6115590;23;20426;-77
2022/09/28 07:49:32;;;;;;;5.80;4.13;;;;;;;6.70;100.00;94257.38;6120960;23;20419;-77
2022/09/28 07:52:12;;;;;;;2.70;2.13;;;;;;;6.91;100.00;94291.81;6122929;23;20818;-78
2022/09/28 07:55:03;;;;;;;3.30;3.00;;;;;;;7.08;100.00;94322.88;6150128;23;20471;-78
2022/09/28 07:57:53;;;;;;;3.97;3.10;;;;;;;6.91;100.00;94291.06;6148517;23;20435;-77
2022/09/28 08:00:33;;;;;;;2.83;1.73;;;;;;;6.96;100.00;94304.69;6149173;23;20411;-77
2022/09/28 08:03:01;;;;;;;1.83;1.47;;;;;;;6.98;100.00;94284.06;6148621;23;20411;-78
2022/09/28 08:05:30;;;;;;;2.20;1.53;;;;;;;6.66;100.00;94259.94;6122780;23;20436;-78
2022/09/28 08:07:58;;;;;;;4.10;1.27;;;;;;;6.68;100.00;94254.34;6147587;23;20438;-78
2022/09/28 08:10:27;;;;;;;1.63;1.37;;;;;;;6.98;100.00;94278.81;6122622;23;20407;-77
2022/09/28 08:13:06;;;;;;;1.93;1.50;;;;;;;7.15;100.00;94290.69;6145293;23;20434;-77
2022/09/28 08:16:01;;;;;;;1.50;1.40;;;;;;;7.24;100.00;94314.84;6137838;23;20403;-78
2022/09/28 08:18:35;;;;;;;1.30;1.20;;;;;;;7.36;100.00;94314.66;6125445;23;20455;-78
2022/09/28 08:23:50;;;;;;;1.60;1.50;;;;;;;7.29;100.00;94290.88;6149260;23;20434;-78
2022/09/28 08:26:17;;;;;;;1.27;1.17;;;;;;;7.57;100.00;94322.03;6149729;23;20400;-78
2022/09/28 08:28:45;;;;;;;1.60;1.50;;;;;;;7.70;100.00;94319.97;6148975;23;20427;-78
2022/09/28 08:31:30;;;;;;;2.93;1.80;;;;;;;7.96;100.00;94332.31;6175585;23;20375;-78
2022/09/28 08:34:12;;;;;;;3.20;1.67;;;;;;;7.92;100.00;94320.97;6149650;23;20396;-79
2022/09/28 08:36:51;;;;;;;3.80;1.80;;;;;;;7.95;100.00;94315.75;6155960;23;20380;-79
2022/09/28 08:39:43;;;;;;;6.23;1.47;;;;;;;8.11;100.00;94312.94;6157819;23;20387;-78
2022/09/28 08:42:34;;;;;;;4.20;1.60;;;;;;;8.02;100.00;94306.44;6151968;23;20434;-79
2022/09/28 08:45:27;;;;;;;2.20;1.37;;;;;;;8.14;100.00;94346.41;6178682;23;20380;-78
2022/09/28 08:48:43;;;;;;;2.03;1.83;;;;;;;8.26;100.00;94367.22;6123467;23;20416;-78
2022/09/28 08:51:55;;;;;;;1.40;1.30;;;;;;;8.10;100.00;94369.31;6135117;23;20820;-79
2022/09/28 08:54:49;;;;;;;1.43;1.33;;;;;;;8.17;100.00;94368.66;6157757;23;20396;-79
2022/09/28 08:57:28;;;;;;;11.83;2.00;;;;;;;7.97;100.00;94329.31;6152305;23;20439;-79
2022/09/28 08:59:58;;;;;;;1.50;1.40;;;;;;;8.42;100.00;94384.75;6124584;23;20396;-79
2022/09/28 09:02:38;;;;;;;1.30;1.20;;;;;;;8.25;100.00;94349.94;6132618;23;20486;-80
2022/09/28 09:05:22;;;;;;;1.27;1.03;;;;;;;8.51;100.00;94387.84;6111083;23;20928;-80
2022/09/28 09:08:21;;;;;;;1.67;1.10;;;;;;;8.30;100.00;94386.47;6136102;23;20415;-80
2022/09/28 09:11:01;;;;;;;1.50;1.13;;;;;;;8.05;100.00;94369.63;6108946;23;20827;-80
2022/09/28 09:13:40;;;;;;;1.37;1.27;;;;;;;8.28;100.00;94406.38;6109102;23;20408;-80
2022/09/28 09:16:30;;;;;;;1.40;1.23;;;;;;;8.33;100.00;94407.94;6108640;23;20407;-80
2022/09/28 09:19:54;;;;;;;2.90;1.10;;;;;;;7.92;100.00;94360.44;6113157;23;20400;-80
2022/09/28 09:22:55;;;;;;;1.17;1.07;;;;;;;8.24;100.00;94424.00;6137079;23;20513;-79
2022/09/28 09:25:47;;;;;;;2.60;1.20;;;;;;;8.08;100.00;94405.75;6108073;23;20408;-79
2022/09/28 09:28:14;;;;;;;1.90;1.60;;;;;;;8.16;100.00;94423.16;6123462;23;20479;-80
2022/09/28 09:31:04;;;;;;;1.80;1.60;;;;;;;7.94;100.00;94395.06;6132760;23;20418;-80
2022/09/28 09:33:42;;;;;;;1.97;1.47;;;;;;;8.32;100.00;94427.47;6132753;23;20436;-80
2022/09/28 09:36:41;;;;;;;1.43;1.33;;;;;;;8.24;100.00;94426.63;6093758;23;20384;-79
2022/09/28 09:39:52;;;;;;;1.27;1.17;;;;;;;8.28;100.00;94430.84;6160523;23;20400;-79
2022/09/28 09:42:56;;;;;;;1.30;1.20;;;;;;;8.34;100.00;94433.16;6180837;23;20395;-80
2022/09/28 09:46:11;;;;;;;5.93;1.20;;;;;;;8.08;100.00;94381.31;6152144;23;20435;-79
2022/09/28 09:49:00;;;;;;;1.13;1.03;;;;;;;8.15;100.00;94419.00;6155565;23;20419;-79
2022/09/28 09:51:37;;;;;;;1.60;1.50;;;;;;;8.32;100.00;94432.75;6158205;23;20994;-79
2022/09/28 09:54:32;;;;;;;1.27;1.13;;;;;;;8.24;100.00;94430.00;6106508;23;20439;-80
2022/09/28 09:57:06;;;;;;;1.97;1.43;;;;;;;8.05;100.00;94408.34;6107464;23;20424;-80
2022/09/28 09:59:59;;;;;;;1.23;1.13;;;;;;;8.27;100.00;94447.72;6097603;23;20392;-80
2022/09/28 10:02:41;;;;;;;1.97;1.40;;;;;;;8.24;100.00;94421.34;6135832;23;20373;-80
2022/09/28 10:05:29;;;;;;;1.50;1.17;;;;;;;8.07;100.00;94414.75;6110484;23;20414;-80
2022/09/28 10:08:24;;;;;;;3.27;1.53;;;;;;;8.52;100.00;94444.66;6131322;23;20424;-80
2022/09/28 10:11:01;;;;;;;1.47;1.37;;;;;;;8.46;100.00;94452.13;6106748;23;20585;-80
2022/09/28 10:13:31;;;;;;;1.77;1.67;;;;;;;8.39;100.00;94414.41;6131293;23;20410;-81
2022/09/28 10:16:01;;;;;;;2.00;1.70;;;;;;;8.18;100.00;94341.97;6131764;23;20443;-80
2022/09/28 10:18:34;;;;;;;1.13;1.03;;;;;;;8.86;100.00;94442.78;6131001;23;20497;-81
2022/09/28 10:21:21;;;;;;;1.30;1.20;;;;;;;8.80;100.00;94425.78;6135348;23;20363;-80
2022/09/28 10:24:03;;;;;;;1.93;1.00;;;;;;;8.65;100.00;94445.19;6109971;23;20403;-80
2022/09/28 10:26:41;;;;;;;1.27;1.07;;;;;;;8.53;100.00;94427.75;6132201;23;20455;-80
2022/09/28 10:29:16;;;;;;;1.43;1.33;;;;;;;8.69;100.00;94473.09;6107708;23;20463;-81
2022/09/28 10:31:46;;;;;;;0.80;0.80;;;;;;;8.26;100.00;94485.69;6131706;23;20489;-80
2022/09/28 10:34:30;;;;;;;2.27;1.17;;;;;;;8.16;100.00;94481.06;6131641;23;20418;-80
2022/09/28 10:37:16;;;;;;;1.37;1.27;;;;;;;8.04;100.00;94446.31;6130795;23;20436;-80
2022/09/28 10:40:29;;;;;;;1.33;1.00;;;;;;;7.82;100.00;94443.38;6111458;23;20403;-80
2022/09/28 10:43:27;;;;;;;3.50;1.00;;;;;;;8.36;100.00;94465.16;6107506;23;20503;-80
2022/09/28 10:46:02;;;;;;;1.00;0.80;;;;;;;8.12;100.00;94421.59;6132433;23;20496;-80
2022/09/28 10:48:52;;;;;;;1.40;1.30;;;;;;;8.16;100.00;94467.91;6108583;23;20894;-80
2022/09/28 10:51:42;;;;;;;1.70;0.90;;;;;;;8.62;100.00;94480.91;6131908;23;20415;-80
2022/09/28 10:54:30;;;;;;;1.00;0.90;;;;;;;8.67;100.00;94485.84;6108628;23;20388;-80
2022/09/28 10:56:59;;;;;;;2.90;0.90;;;;;;;8.73;100.00;94446.78;6107532;23;20434;-80
2022/09/28 10:59:40;;;;;;;1.30;1.10;;;;;;;9.16;100.00;94480.34;6132133;23;20423;-80
2022/09/28 11:02:24;;;;;;;1.23;0.90;;;;;;;9.21;100.00;94484.53;6110595;23;20403;-81
2022/09/28 11:05:00;;;;;;;2.03;1.10;;;;;;;9.14;100.00;94473.94;6109784;23;20462;-80
2022/09/28 11:07:43;;;;;;;2.33;1.13;;;;;;;9.34;100.00;94469.97;6132845;23;20482;-80
2022/09/28 11:10:23;;;;;;;1.10;0.93;;;;;;;9.24;100.00;94491.00;6107673;23;20408;-80
2022/09/28 11:12:53;;;;;;;0.93;0.83;;;;;;;8.85;100.00;94413.03;6108567;23;20495;-80
2022/09/28 11:15:29;;;;;;;1.37;1.27;;;;;;;9.35;100.00;94425.94;6109233;23;20426;-80
2022/09/28 11:18:31;;;;;;;1.10;1.00;;;;;;;9.92;100.00;94502.88;6132115;23;21028;-81
2022/09/28 11:21:13;;;;;;;0.90;0.90;;;;;;;10.28;100.00;94488.03;6132982;23;20422;-81
2022/09/28 11:24:06;;;;;;;1.63;1.20;;;;;;;10.51;100.00;94488.53;6110319;23;20499;-81
2022/09/28 11:26:40;;;;;;;1.10;1.00;;;;;;;10.97;100.00;94495.91;6110053;23;20713;-81
2022/09/28 11:29:21;;;;;;;2.03;1.10;;;;;;;10.80;100.00;94486.00;6133305;23;20451;-81
2022/09/28 11:32:04;;;;;;;1.43;0.97;;;;;;;10.90;100.00;94488.69;6110866;23;20470;-81
2022/09/28 11:34:46;;;;;;;1.80;1.00;;;;;;;10.06;100.00;94347.94;6142979;23;20404;-80
2022/09/28 11:37:49;;;;;;;2.70;0.97;;;;;;;10.86;100.00;94500.38;6150170;23;20416;-80
2022/09/28 11:40:49;;;;;;;1.63;0.90;;;;;;;10.48;100.00;94478.69;6153911;23;20454;-78
2022/09/28 11:43:31;;;;;;;2.53;1.10;;;;;;;11.15;100.00;94517.09;6155394;23;20400;-79
2022/09/28 11:46:30;;;;;;;1.53;1.43;;;;;;;11.09;100.00;94510.66;6130687;23;20471;-78
2022/09/28 11:49:16;;;;;;;1.20;1.10;;;;;;;11.68;100.00;94505.84;6133321;23;20496;-78
2022/09/28 11:51:45;;;;;;;2.43;1.37;;;;;;;11.62;100.00;94499.41;6130496;23;20411;-78
2022/09/28 11:54:18;;;;;;;0.83;0.80;;;;;;;11.44;100.00;94515.25;6129470;23;20481;-78
2022/09/28 11:56:49;;;;;;;3.00;1.20;;;;;;;11.87;100.00;94486.19;6106528;23;20408;-79
2022/09/28 11:59:19;;;;;;;0.90;0.87;;;;;;;11.26;100.00;94515.25;6106386;23;20906;-79
2022/09/28 12:01:56;;;;;;;1.93;1.43;;;;;;;10.24;100.00;94419.34;6131720;23;20677;-79
2022/09/28 12:04:42;;;;;;;3.00;1.63;;;;;;;10.02;100.00;94425.63;6133180;23;20406;-79
2022/09/28 12:07:25;;;;;;;6.23;1.80;;;;;;;10.47;100.00;94513.41;6134009;23;20426;-79
2022/09/28 12:09:59;;;;;;;1.20;1.10;;;;;;;10.71;100.00;94514.69;6131688;23;20403;-79
2022/09/28 12:12:34;;;;;;;1.90;1.07;;;;;;;11.27;100.00;94535.25;6131229;23;20752;-79
2022/09/28 12:15:21;;;;;;;2.50;1.03;;;;;;;11.18;100.00;94537.50;6133470;23;20447;-79
2022/09/28 12:18:02;;;;;;;2.70;0.83;;;;;;;11.32;100.00;94521.66;6159415;23;20470;-79
2022/09/28 12:20:37;;;;;;;4.10;1.20;;;;;;;11.84;100.00;94475.22;6109968;23;20431;-79
2022/09/28 12:23:13;;;;;;;1.20;1.10;;;;;;;12.13;92.47;94552.03;6110705;23;20470;-78